Time;durP1;ratioP1;P1;durP2;ratioP2;P2;SDS_P1;SDS_P2;PMS_P1;PMS_P2;Temp;Humidity;BMP_temperature;BMP_pressure;BME280_temperature;BME280_humidity;BME280_pressure;Samples;Min_cycle;Max_cycle;Signal;HPM_P1;HPM_P2
2022/05/21 00:02:16;;;;;;;19.13;10.60;;;;;;;10.84;78.30;100238.25;5043267;28;20564;-58
2022/05/21 00:04:47;;;;;;;14.60;10.18;;;;;;;11.10;78.45;100253.44;5043635;28;20390;-58
2022/05/21 00:07:18;;;;;;;14.77;9.77;;;;;;;11.25;77.97;100254.06;5043411;28;20283;-59
2022/05/21 00:09:48;;;;;;;13.65;10.23;;;;;;;11.37;77.48;100256.44;5043463;28;20053;-57
2022/05/21 00:12:21;;;;;;;15.23;10.35;;;;;;;11.39;77.09;100262.50;5043390;28;20343;-57
2022/05/21 00:14:52;;;;;;;32.55;12.95;;;;;;;11.51;77.12;100254.41;5042401;28;20138;-57
2022/05/21 00:17:22;;;;;;;16.08;10.32;;;;;;;11.63;76.75;100254.16;5043644;28;20453;-59
2022/05/21 00:19:53;;;;;;;22.88;10.38;;;;;;;11.73;76.96;100251.34;5042408;28;20344;-58
2022/05/21 00:22:24;;;;;;;16.10;9.90;;;;;;;12.01;76.48;100257.75;5043588;28;20046;-57
2022/05/21 00:24:54;;;;;;;15.57;10.63;;;;;;;12.18;75.74;100244.25;5042923;28;20057;-58
2022/05/21 00:27:27;;;;;;;16.98;10.52;;;;;;;12.22;74.64;100245.91;5042746;28;20061;-58
2022/05/21 00:29:57;;;;;;;15.68;10.85;;;;;;;12.22;74.62;100237.19;5043136;28;20060;-59
2022/05/21 00:32:28;;;;;;;20.23;11.10;;;;;;;12.27;74.72;100237.94;5043074;28;20940;-58
2022/05/21 00:34:59;;;;;;;17.20;11.10;;;;;;;12.30;74.28;100238.75;5042221;28;20053;-59
2022/05/21 00:37:29;;;;;;;19.98;11.63;;;;;;;12.36;74.42;100242.97;5041594;28;20052;-58
2022/05/21 00:40:00;;;;;;;18.05;11.85;;;;;;;12.39;74.32;100232.41;5042935;28;20065;-58
2022/05/21 00:42:33;;;;;;;19.85;11.75;;;;;;;12.36;74.46;100237.72;5043157;28;20427;-58
2022/05/21 00:45:04;;;;;;;19.20;12.35;;;;;;;12.26;74.93;100236.22;5042118;28;20053;-58
2022/05/21 00:47:36;;;;;;;22.63;14.23;;;;;;;12.23;74.92;100237.16;5043396;28;20048;-58
2022/05/21 00:50:10;;;;;;;30.17;13.55;;;;;;;12.01;74.74;100218.47;5043403;28;20061;-58
2022/05/21 00:52:41;;;;;;;23.67;13.43;;;;;;;12.03;75.41;100237.63;5041860;28;20065;-59
2022/05/21 00:55:15;;;;;;;22.63;12.73;;;;;;;12.08;75.42;100235.75;5041482;28;20091;-59
2022/05/21 00:59:47;;;;;;;22.15;14.27;;;;;;;12.14;75.22;100220.78;5042327;28;20049;-59
2022/05/21 01:00:41;;;;;;;24.67;15.18;;;;;;;12.11;74.92;100192.06;5041373;28;20056;-59
2022/05/21 01:03:14;;;;;;;;;;;;;;;12.41;74.70;100229.75;5043150;28;20546;-59
2022/05/21 01:05:47;;;;;;;25.75;14.77;;;;;;;12.54;73.98;100225.06;5041577;28;19931;-60
2022/05/21 01:08:18;;;;;;;26.23;15.20;;;;;;;12.65;74.18;100217.78;5041132;28;20050;-60
2022/05/21 01:10:52;;;;;;;21.60;13.98;;;;;;;12.79;73.39;100220.91;5042110;28;20091;-59
2022/05/21 01:13:28;;;;;;;24.80;15.43;;;;;;;12.78;72.67;100208.72;5042102;28;20053;-58
2022/05/21 01:15:59;;;;;;;21.45;14.55;;;;;;;12.69;72.92;100208.94;5040230;28;20052;-59
2022/05/21 01:18:30;;;;;;;24.80;14.90;;;;;;;12.98;72.87;100215.16;5040438;28;20076;-59
2022/05/21 01:21:02;;;;;;;23.95;14.50;;;;;;;13.07;72.58;100209.69;5042770;28;20061;-58
2022/05/21 01:23:35;;;;;;;24.33;14.73;;;;;;;13.30;72.16;100212.53;5039794;28;20046;-58
2022/05/21 01:26:07;;;;;;;34.42;16.20;;;;;;;13.32;71.45;100184.50;5041157;28;20135;-58
2022/05/21 01:28:40;;;;;;;27.23;16.73;;;;;;;13.53;71.31;100205.78;5041930;28;20099;-59
2022/05/21 01:31:10;;;;;;;26.85;15.65;;;;;;;13.74;71.39;100213.00;5044142;28;20672;-58
2022/05/21 01:33:43;;;;;;;28.98;16.15;;;;;;;13.71;69.43;100213.13;5045108;28;20123;-58
2022/05/21 01:36:15;;;;;;;29.35;16.60;;;;;;;13.54;70.12;100216.22;5045670;28;20119;-58
2022/05/21 01:38:48;;;;;;;32.45;16.30;;;;;;;13.52;70.40;100209.31;5045373;28;20288;-58
2022/05/21 01:41:19;;;;;;;24.67;15.85;;;;;;;13.54;70.99;100213.59;5045701;28;20048;-59
2022/05/21 01:46:36;;;;;;;23.67;14.48;;;;;;;13.79;70.06;100216.34;5045673;28;20049;-59
2022/05/21 01:49:07;;;;;;;24.42;13.98;;;;;;;13.72;69.60;100203.47;5045205;28;20099;-59
2022/05/21 01:51:38;;;;;;;22.25;13.63;;;;;;;13.66;69.31;100188.75;5045086;28;20041;-59
2022/05/21 01:54:10;;;;;;;19.67;13.45;;;;;;;13.75;69.08;100204.25;5044308;28;20091;-58
2022/05/21 01:56:41;;;;;;;19.65;12.27;;;;;;;13.77;69.13;100193.69;5045247;28;20092;-60
2022/05/21 01:59:11;;;;;;;17.25;11.85;;;;;;;13.82;69.13;100221.50;5043683;28;20057;-59
2022/05/21 02:01:42;;;;;;;21.83;12.95;;;;;;;13.82;68.77;100200.50;5045309;28;20060;-59
2022/05/21 02:04:13;;;;;;;20.38;13.38;;;;;;;13.81;69.03;100198.78;5044602;28;20153;-59
2022/05/21 02:06:44;;;;;;;18.63;12.15;;;;;;;13.74;69.24;100173.63;5043960;28;20052;-59
2022/05/21 02:09:16;;;;;;;25.95;12.07;;;;;;;14.17;68.76;100198.53;5044598;28;20058;-58
2022/05/21 02:11:47;;;;;;;22.80;12.80;;;;;;;14.27;68.77;100190.38;5044926;28;20126;-59
2022/05/21 02:14:18;;;;;;;20.55;13.32;;;;;;;14.49;68.27;100186.13;5044184;28;20116;-59
2022/05/21 02:16:49;;;;;;;20.10;12.13;;;;;;;14.72;67.72;100182.72;5045278;28;20085;-58
2022/05/21 02:19:20;;;;;;;26.88;13.20;;;;;;;15.02;67.72;100188.66;5044954;28;20092;-59
2022/05/21 02:21:50;;;;;;;24.70;13.33;;;;;;;15.30;67.02;100185.03;5045031;28;20102;-58
2022/05/21 02:24:23;;;;;;;20.40;12.23;;;;;;;15.48;65.78;100173.81;5043846;28;20284;-59
2022/05/21 02:26:53;;;;;;;25.73;12.47;;;;;;;15.54;65.27;100168.31;5043600;28;20302;-58
2022/05/21 02:29:25;;;;;;;24.97;12.80;;;;;;;15.69;65.51;100168.66;5043850;28;20284;-60
2022/05/21 02:31:55;;;;;;;21.80;12.83;;;;;;;15.96;65.77;100164.94;5042418;28;20503;-59
2022/05/21 02:34:43;;;;;;;20.93;12.40;;;;;;;16.22;64.76;100149.84;5042417;28;20539;-59
2022/05/21 02:40:03;;;;;;;17.87;11.03;;;;;;;16.12;63.46;100156.41;5043791;28;20294;-59
2022/05/21 02:42:46;;;;;;;18.03;11.73;;;;;;;16.07;63.04;100142.56;5042724;28;20307;-58
2022/05/21 02:45:19;;;;;;;22.30;12.60;;;;;;;16.22;64.07;100155.09;5044188;28;20346;-57
2022/05/21 02:47:51;;;;;;;16.13;11.27;;;;;;;16.35;63.30;100150.22;5045274;28;20467;-58
2022/05/21 02:50:23;;;;;;;17.20;10.90;;;;;;;16.15;63.39;100111.50;5044866;28;20633;-59
2022/05/21 02:52:54;;;;;;;17.80;11.07;;;;;;;16.28;63.27;100148.75;5043114;28;20280;-59
2022/05/21 02:55:26;;;;;;;23.23;10.60;;;;;;;16.31;62.65;100138.91;5044089;28;20474;-59
2022/05/21 02:57:57;;;;;;;15.87;11.00;;;;;;;16.25;62.95;100139.19;5043111;28;20656;-59
2022/05/21 03:00:29;;;;;;;16.80;10.23;;;;;;;16.22;62.54;100123.47;5044381;28;20699;-59
2022/05/21 03:03:00;;;;;;;22.00;11.03;;;;;;;16.22;62.29;100120.84;5044215;28;20276;-59
2022/05/21 03:05:32;;;;;;;18.50;11.67;;;;;;;16.31;63.06;100115.19;5043256;28;20333;-59
2022/05/21 03:10:20;;;;;;;18.23;11.23;;;;;;;16.44;62.82;100123.44;5043516;28;20353;-59
2022/05/21 03:10:54;;;;;;;28.77;11.80;;;;;;;16.64;62.44;100119.94;5042924;28;20323;-59
2022/05/21 03:13:25;;;;;;;17.00;11.33;;;;;;;16.60;61.91;100097.25;5043731;28;20283;-59
2022/05/21 03:15:56;;;;;;;22.43;11.87;;;;;;;16.65;62.09;100116.38;5043686;28;20315;-61
2022/05/21 03:18:27;;;;;;;16.60;10.63;;;;;;;16.76;62.04;100108.84;5043028;28;20318;-59
2022/05/21 03:20:57;;;;;;;17.57;10.60;;;;;;;17.06;62.20;100110.22;5042843;28;20276;-58
2022/05/21 03:23:28;;;;;;;18.83;11.10;;;;;;;17.00;60.12;100116.63;5043196;28;20288;-58
2022/05/21 03:26:00;;;;;;;21.67;11.70;;;;;;;16.96;60.63;100104.50;5043594;28;20300;-58
2022/05/21 03:28:30;;;;;;;20.60;11.50;;;;;;;16.84;61.07;100094.47;5043410;28;20307;-59
2022/05/21 03:31:02;;;;;;;17.80;12.17;;;;;;;17.02;61.30;100094.53;5042893;28;20302;-59
2022/05/21 03:33:32;;;;;;;16.80;10.57;;;;;;;17.22;60.83;100104.16;5042834;28;20299;-59
2022/05/21 03:36:04;;;;;;;19.87;11.50;;;;;;;17.39;60.29;100098.06;5042906;28;20295;-59
2022/05/21 03:38:35;;;;;;;28.13;12.37;;;;;;;17.34;60.07;100086.00;5043723;28;20280;-60
2022/05/21 03:41:07;;;;;;;19.23;10.77;;;;;;;17.43;60.96;100101.44;5042964;28;20321;-59
2022/05/21 03:43:37;;;;;;;27.43;11.83;;;;;;;17.46;60.19;100082.78;5042343;28;20292;-59
2022/05/21 03:46:08;;;;;;;26.60;11.10;;;;;;;17.59;59.56;100083.91;5042060;28;21026;-58
2022/05/21 03:48:39;;;;;;;18.80;11.50;;;;;;;17.72;59.94;100083.31;5043467;28;20785;-59
2022/05/21 03:51:10;;;;;;;26.10;11.97;;;;;;;17.66;59.48;100080.03;5042477;28;20353;-59
2022/05/21 03:53:40;;;;;;;16.23;10.77;;;;;;;17.75;59.93;100084.03;5043117;28;20356;-60
2022/05/21 03:56:13;;;;;;;21.60;11.43;;;;;;;17.89;59.17;100080.72;5042682;28;20350;-60
2022/05/21 03:58:43;;;;;;;15.70;9.93;;;;;;;17.79;58.27;100048.56;5043374;28;20287;-59
2022/05/21 04:01:14;;;;;;;18.90;10.97;;;;;;;17.96;58.16;100071.56;5043142;28;20279;-59
2022/05/21 04:03:45;;;;;;;21.53;10.80;;;;;;;17.79;58.48;100034.53;5041434;28;20358;-60
2022/05/21 04:06:16;;;;;;;18.17;11.17;;;;;;;17.98;58.33;100059.13;5043228;28;20459;-59
2022/05/21 04:08:49;;;;;;;15.90;10.00;;;;;;;18.13;58.34;100051.38;5043207;28;20514;-59
2022/05/21 04:11:21;;;;;;;17.77;10.57;;;;;;;18.25;57.27;100050.75;5043531;28;20342;-60
2022/05/21 04:13:52;;;;;;;17.10;9.60;;;;;;;18.24;56.53;100044.56;5043199;28;20288;-58
2022/05/21 04:16:23;;;;;;;20.13;11.37;;;;;;;18.24;56.96;100049.00;5042360;28;20280;-59
2022/05/21 04:18:54;;;;;;;17.87;10.70;;;;;;;18.30;56.76;100048.72;5042559;28;20487;-60
2022/05/21 04:21:26;;;;;;;18.30;10.63;;;;;;;18.34;56.50;100050.25;5043423;28;20278;-60
2022/05/21 04:23:57;;;;;;;20.00;11.00;;;;;;;18.50;57.38;100045.88;5042019;28;20474;-60
2022/05/21 04:26:29;;;;;;;15.23;9.50;;;;;;;18.72;56.76;100045.59;5043477;28;20280;-60
2022/05/21 04:29:00;;;;;;;21.60;9.37;;;;;;;18.82;55.38;100042.47;5042884;28;20284;-60
2022/05/21 04:31:30;;;;;;;16.23;8.83;;;;;;;18.70;54.27;100036.03;5043315;28;20295;-60
2022/05/21 04:34:02;;;;;;;14.53;8.87;;;;;;;18.61;54.83;100031.22;5042665;28;20342;-59
2022/05/21 04:36:33;;;;;;;15.77;9.10;;;;;;;18.73;55.63;100033.22;5042767;28;20311;-59
2022/05/21 04:39:03;;;;;;;54.77;10.33;;;;;;;18.79;54.55;100032.91;5041895;28;20589;-59
2022/05/21 04:41:36;;;;;;;23.27;8.90;;;;;;;18.72;55.28;100023.53;5042993;28;20280;-60
2022/05/21 04:44:07;;;;;;;14.10;8.60;;;;;;;18.72;54.08;100028.84;5041521;28;20334;-59
2022/05/21 04:46:38;;;;;;;15.60;8.53;;;;;;;18.59;54.16;100022.50;5043042;28;20561;-59
2022/05/21 04:49:08;;;;;;;25.53;8.50;;;;;;;18.59;55.00;100017.22;5041612;28;20280;-59
2022/05/21 04:51:40;;;;;;;19.60;8.73;;;;;;;18.58;54.41;100026.09;5041533;28;20606;-58
2022/05/21 04:54:11;;;;;;;13.00;8.57;;;;;;;18.53;54.22;100019.25;5043085;28;20291;-59
2022/05/21 04:56:43;;;;;;;18.80;8.13;;;;;;;18.62;54.51;100006.44;5043042;28;20342;-59
2022/05/21 04:59:14;;;;;;;17.57;8.20;;;;;;;18.51;53.73;99986.72;5040659;28;20299;-59
2022/05/21 05:01:45;;;;;;;22.73;11.20;;;;;;;18.72;53.80;100005.03;5041813;28;20322;-60
2022/05/21 05:04:15;;;;;;;16.30;7.97;;;;;;;18.80;53.14;99989.63;5041410;28;20618;-60
2022/05/21 05:06:49;;;;;;;17.23;7.43;;;;;;;18.81;52.69;99986.03;5046255;28;20307;-60
2022/05/21 05:09:22;;;;;;;15.33;7.80;;;;;;;18.82;52.66;99986.88;5046762;28;20525;-60
2022/05/21 05:11:55;;;;;;;17.07;8.17;;;;;;;18.76;52.84;99974.84;5045581;28;20296;-60
2022/05/21 05:14:25;;;;;;;11.87;7.47;;;;;;;18.72;53.30;99975.91;5045373;28;20296;-60
2022/05/21 05:16:56;;;;;;;12.53;7.43;;;;;;;18.73;53.08;99975.00;5046468;28;20291;-60
2022/05/21 05:19:29;;;;;;;16.83;7.80;;;;;;;18.65;52.81;99970.13;5045834;28;20272;-60
2022/05/21 05:22:00;;;;;;;15.13;7.20;;;;;;;18.58;53.13;99957.31;5045706;28;20893;-59
2022/05/21 05:24:31;;;;;;;12.30;7.97;;;;;;;18.73;53.02;99972.34;5046502;28;20299;-59
2022/05/21 05:27:03;;;;;;;14.77;8.00;;;;;;;18.81;52.75;99964.84;5046198;28;20280;-60
2022/05/21 05:29:34;;;;;;;15.40;7.80;;;;;;;18.80;53.23;99968.44;5046413;28;20288;-60
2022/05/21 05:32:05;;;;;;;16.87;7.93;;;;;;;18.86;52.53;99957.50;5045203;28;20299;-60
2022/05/21 05:34:37;;;;;;;11.90;7.20;;;;;;;18.29;52.32;99875.91;5046404;28;20632;-60
2022/05/21 05:37:07;;;;;;;17.50;7.80;;;;;;;18.85;52.49;99966.41;5045772;28;20292;-60
2022/05/21 05:39:38;;;;;;;17.73;7.67;;;;;;;18.85;52.41;99966.41;5045016;28;20288;-60
2022/05/21 05:42:10;;;;;;;17.00;7.57;;;;;;;18.90;52.74;99972.28;5045894;28;20322;-60
2022/05/21 05:44:41;;;;;;;21.67;7.83;;;;;;;19.11;52.85;99966.72;5045965;28;20287;-59
2022/05/21 05:47:11;;;;;;;15.10;7.80;;;;;;;19.23;52.09;99966.03;5045934;28;20288;-60
2022/05/21 05:49:42;;;;;;;11.70;8.40;;;;;;;19.18;50.49;99963.66;5045213;28;20602;-60
2022/05/21 05:52:13;;;;;;;19.00;6.90;;;;;;;19.14;51.33;99966.56;5045883;28;20983;-61
2022/05/21 05:54:43;;;;;;;12.80;7.70;;;;;;;18.94;51.40;99942.03;5044727;28;20295;-60
2022/05/21 05:57:18;;;;;;;14.90;7.47;;;;;;;19.14;50.91;99950.66;5045886;28;20280;-60
2022/05/21 05:59:51;;;;;;;20.93;10.07;;;;;;;18.91;50.95;99923.69;5045787;28;20284;-60
2022/05/21 06:05:12;;;;;;;13.43;7.55;;;;;;;19.12;51.39;99941.94;5043778;28;20291;-60
2022/05/21 06:07:43;;;;;;;21.43;8.10;;;;;;;19.36;51.45;99940.53;5045018;28;20343;-60
2022/05/21 06:10:16;;;;;;;14.50;7.80;;;;;;;19.48;51.21;99940.78;5045163;28;20499;-61
2022/05/21 06:12:48;;;;;;;31.13;8.67;;;;;;;19.60;50.36;99938.28;5045025;28;20331;-60
2022/05/21 06:15:19;;;;;;;11.10;7.30;;;;;;;19.65;50.71;99930.03;5045114;28;20384;-59
2022/05/21 06:17:51;;;;;;;13.43;7.43;;;;;;;19.58;50.32;99934.00;5044517;28;20291;-60
2022/05/21 06:20:24;;;;;;;10.13;7.87;;;;;;;19.58;51.12;99928.69;5045640;28;20295;-59
2022/05/21 06:22:55;;;;;;;12.17;6.83;;;;;;;19.72;50.76;99931.44;5044342;28;20292;-60
2022/05/21 06:25:29;;;;;;;19.23;7.37;;;;;;;19.67;49.80;99936.16;5043970;28;20350;-60
2022/05/21 06:28:02;;;;;;;10.83;7.67;;;;;;;19.55;49.92;99918.28;5045378;28;20284;-60
2022/05/21 06:30:34;;;;;;;10.33;6.70;;;;;;;19.56;49.31;99930.59;5044380;28;20289;-60
2022/05/21 06:33:14;;;;;;;10.90;7.67;;;;;;;19.42;49.69;99922.59;5045039;28;20291;-60
2022/05/21 06:35:45;;;;;;;13.73;7.13;;;;;;;19.50;50.17;99930.97;5044172;28;20298;-60
2022/05/21 06:38:16;;;;;;;11.70;6.70;;;;;;;19.51;49.35;99937.94;5044308;28;20290;-60
2022/05/21 06:40:47;;;;;;;10.70;6.97;;;;;;;19.51;49.90;99937.94;5045093;28;20280;-60
2022/05/21 06:43:20;;;;;;;44.97;8.30;;;;;;;19.59;49.69;99933.03;5044598;28;20364;-60
2022/05/21 06:45:51;;;;;;;15.00;7.07;;;;;;;19.50;49.67;99923.00;5043893;28;20355;-60
2022/05/21 06:48:21;;;;;;;13.87;7.57;;;;;;;19.40;49.38;99928.84;5043852;28;20284;-60
2022/05/21 06:50:52;;;;;;;23.23;7.73;;;;;;;19.33;50.51;99919.53;5043738;28;20315;-59
2022/05/21 06:53:23;;;;;;;15.47;7.43;;;;;;;19.38;50.32;99935.16;5044732;28;20311;-60
2022/05/21 06:55:54;;;;;;;29.03;7.87;;;;;;;19.24;50.57;99925.34;5044612;28;20362;-60
2022/05/21 06:58:26;;;;;;;15.40;7.80;;;;;;;19.23;49.95;99936.91;5043224;28;20471;-59
2022/05/21 07:00:57;;;;;;;15.47;7.73;;;;;;;19.11;50.02;99934.94;5044508;28;20296;-60
2022/05/21 07:03:28;;;;;;;31.23;7.80;;;;;;;18.94;50.10;99902.34;5044398;28;20325;-59
2022/05/21 07:08:45;;;;;;;17.63;8.60;;;;;;;19.02;50.54;99936.34;5043787;28;20972;-60
2022/05/21 07:11:16;;;;;;;13.63;7.80;;;;;;;19.00;50.86;99932.94;5044143;28;20288;-60
2022/05/21 07:13:48;;;;;;;16.93;8.83;;;;;;;18.85;51.56;99907.31;5043944;28;20307;-60
2022/05/21 07:16:19;;;;;;;18.03;9.67;;;;;;;19.09;51.77;99931.53;5044422;28;20319;-60
2022/05/21 07:18:49;;;;;;;29.27;9.63;;;;;;;18.93;51.87;99932.41;5043993;28;20283;-60
2022/05/21 07:21:20;;;;;;;15.40;8.07;;;;;;;18.94;52.25;99935.91;5044372;28;20295;-60
2022/05/21 07:23:51;;;;;;;14.63;8.37;;;;;;;18.83;52.07;99931.22;5044355;28;20517;-60
2022/05/21 07:26:22;;;;;;;14.13;8.07;;;;;;;18.82;52.85;99929.53;5043239;28;20335;-60
2022/05/21 07:28:56;;;;;;;12.60;8.13;;;;;;;18.69;52.64;99905.47;5043725;28;20344;-60
2022/05/21 07:31:27;;;;;;;15.23;8.90;;;;;;;18.71;51.97;99932.72;5042937;28;20283;-60
2022/05/21 07:33:58;;;;;;;20.57;8.37;;;;;;;18.59;52.14;99932.53;5044007;28;20913;-60
2022/05/21 07:36:28;;;;;;;20.60;8.43;;;;;;;18.51;52.99;99920.56;5043939;28;20524;-60
2022/05/21 07:38:59;;;;;;;14.63;8.77;;;;;;;18.45;53.53;99918.28;5043721;28;20386;-61
2022/05/21 07:41:30;;;;;;;21.17;8.60;;;;;;;18.18;52.74;99874.81;5042866;28;20288;-60
2022/05/21 07:44:02;;;;;;;28.03;9.67;;;;;;;18.42;53.43;99905.22;5042617;28;20280;-60
2022/05/21 07:46:33;;;;;;;13.53;8.47;;;;;;;18.40;52.70;99922.13;5043546;28;20548;-60
2022/05/21 07:49:03;;;;;;;17.77;9.30;;;;;;;18.33;52.78;99911.00;5042350;28;20590;-61
2022/05/21 07:51:35;;;;;;;15.67;8.43;;;;;;;18.17;52.79;99910.13;5043076;28;20311;-61
2022/05/21 07:54:06;;;;;;;13.43;8.60;;;;;;;18.15;53.01;99917.28;5042358;28;20338;-60
2022/05/21 07:56:36;;;;;;;14.57;8.20;;;;;;;18.05;53.16;99917.78;5043479;28;20314;-60
2022/05/21 07:59:09;;;;;;;16.53;8.43;;;;;;;17.95;53.27;99932.41;5042354;28;20317;-60
2022/05/21 08:01:39;;;;;;;14.07;8.80;;;;;;;17.86;53.80;99917.88;5043092;28;20319;-60
2022/05/21 08:04:10;;;;;;;37.37;9.47;;;;;;;17.86;53.88;99932.88;5042467;28;20291;-60
2022/05/21 08:06:41;;;;;;;16.60;9.03;;;;;;;17.80;53.56;99943.78;5043337;28;20629;-60
2022/05/21 08:09:11;;;;;;;12.47;8.17;;;;;;;17.64;53.52;99926.00;5043382;28;20291;-61
2022/05/21 08:11:42;;;;;;;14.70;8.50;;;;;;;17.53;53.60;99944.22;5043237;28;20290;-61
2022/05/21 08:14:14;;;;;;;10.73;8.63;;;;;;;17.46;54.14;99946.28;5042826;28;20358;-60
2022/05/21 08:16:45;;;;;;;16.27;9.13;;;;;;;17.39;54.37;99950.16;5041203;28;20330;-60
2022/05/21 08:19:16;;;;;;;17.47;9.63;;;;;;;17.22;54.48;99964.22;5043131;28;20302;-61
2022/05/21 08:21:47;;;;;;;18.17;9.33;;;;;;;17.14;54.97;99950.50;5043459;28;20283;-61
2022/05/21 08:27:06;;;;;;;13.93;9.90;;;;;;;16.95;55.09;99949.72;5041307;28;20286;-61
2022/05/21 08:29:38;;;;;;;16.50;9.30;;;;;;;16.94;55.37;99963.81;5041457;28;20287;-61
2022/05/21 08:32:13;;;;;;;15.90;10.53;;;;;;;16.89;55.41;99961.38;5042628;28;20284;-60
2022/05/21 08:34:43;;;;;;;20.97;10.10;;;;;;;16.74;55.80;99952.38;5042100;28;20342;-60
2022/05/21 08:37:14;;;;;;;23.80;10.07;;;;;;;16.56;56.36;99953.25;5041992;28;20838;-61
2022/05/21 08:39:45;;;;;;;13.07;9.63;;;;;;;16.48;56.47;99960.66;5043493;28;20363;-60
2022/05/21 08:42:22;;;;;;;22.97;11.83;;;;;;;16.38;56.74;99966.34;5045929;28;20341;-59
2022/05/21 08:45:03;;;;;;;13.20;9.73;;;;;;;16.08;56.83;99952.75;5047083;28;20279;-59
2022/05/21 08:47:38;;;;;;;15.27;11.60;;;;;;;15.87;57.80;99966.84;5046337;28;20307;-62
2022/05/21 08:50:14;;;;;;;18.20;11.37;;;;;;;15.62;58.31;99949.41;5046536;28;20282;-59
2022/05/21 08:52:49;;;;;;;25.27;14.13;;;;;;;15.62;59.00;99967.00;5045601;28;20315;-59
2022/05/21 08:55:21;;;;;;;19.70;14.13;;;;;;;15.59;59.14;99975.03;5047118;28;20442;-59
2022/05/21 08:57:56;;;;;;;18.37;12.67;;;;;;;15.42;59.34;99958.13;5046476;28;20350;-60
2022/05/21 09:00:33;;;;;;;16.27;11.47;;;;;;;15.34;59.44;99970.78;5047045;28;20307;-60
2022/05/21 09:03:08;;;;;;;17.47;11.17;;;;;;;15.07;59.12;99942.00;5046021;28;20288;-58
2022/05/21 09:05:43;;;;;;;17.63;10.67;;;;;;;15.12;59.14;99969.91;5045589;28;20315;-59
2022/05/21 09:08:20;;;;;;;14.20;11.30;;;;;;;15.01;59.39;99973.84;5046719;28;20347;-59
2022/05/21 09:10:55;;;;;;;15.20;10.80;;;;;;;14.90;59.62;99981.28;5046971;28;20446;-59
2022/05/21 09:13:38;;;;;;;21.47;11.50;;;;;;;14.86;60.14;99977.06;5045404;28;20280;-58
2022/05/21 09:18:59;;;;;;;20.07;11.10;;;;;;;14.61;60.41;99980.63;5043753;28;20387;-58
2022/05/21 09:21:32;;;;;;;14.60;10.57;;;;;;;14.42;61.10;99974.28;5045431;28;20535;-58
2022/05/21 09:24:05;;;;;;;20.80;11.63;;;;;;;14.36;61.60;99970.13;5044900;28;20318;-59
2022/05/21 09:26:50;;;;;;;19.43;12.23;;;;;;;14.42;62.64;99963.78;5044825;28;20355;-60
2022/05/21 09:29:26;;;;;;;37.53;13.20;;;;;;;14.47;62.52;99972.34;5045708;28;20272;-59
2022/05/21 09:31:58;;;;;;;16.13;13.43;;;;;;;14.36;62.25;99971.91;5045760;28;20275;-59
2022/05/21 09:34:31;;;;;;;21.80;16.00;;;;;;;14.02;62.54;99925.81;5045334;28;20379;-59
2022/05/21 09:37:02;;;;;;;24.20;12.60;;;;;;;13.91;62.53;99967.38;5045931;28;20307;-59
2022/05/21 09:39:36;;;;;;;26.77;16.90;;;;;;;13.39;63.61;99930.63;5046252;28;20346;-59
2022/05/21 09:45:21;;;;;;;31.90;19.30;;;;;;;13.46;63.99;99975.91;5044839;28;20292;-59
2022/05/21 09:45:23;;;;;;;37.28;21.95;;;;;;;13.12;64.51;99959.44;5044197;28;20061;-60
2022/05/21 09:48:16;;;;;;;35.38;20.48;;;;;;;12.97;65.16;99972.16;5045663;28;20143;-60
2022/05/21 09:50:50;;;;;;;37.38;21.42;;;;;;;12.82;65.74;99971.72;5044782;28;20117;-59
2022/05/21 09:53:30;;;;;;;26.85;16.73;;;;;;;12.69;66.09;99973.00;5045078;28;20446;-59
2022/05/21 09:56:04;;;;;;;44.78;15.40;;;;;;;12.59;66.56;99966.31;5045584;28;20061;-60
2022/05/21 09:58:37;;;;;;;39.80;19.00;;;;;;;12.47;67.08;99973.63;5044706;28;20064;-60
2022/05/21 10:01:10;;;;;;;30.50;22.23;;;;;;;12.39;67.41;99975.63;5043432;28;20067;-58
2022/05/21 10:03:49;;;;;;;185.80;28.13;;;;;;;12.30;68.08;99970.63;5044417;28;20061;-58
2022/05/21 10:06:26;;;;;;;27.75;15.88;;;;;;;12.24;68.09;99976.06;5044513;28;20383;-57
2022/05/21 10:11:58;;;;;;;57.58;18.45;;;;;;;12.06;68.93;99988.75;5044788;28;20056;-59
2022/05/21 10:14:34;;;;;;;53.30;16.55;;;;;;;12.00;69.25;99994.13;5045215;28;20251;-58
2022/05/21 10:17:09;;;;;;;23.60;13.95;;;;;;;12.01;69.27;99985.41;5045331;28;20116;-59
2022/05/21 10:20:06;;;;;;;24.25;15.93;;;;;;;11.89;69.13;99990.09;5045247;28;20134;-59
2022/05/21 10:22:49;;;;;;;25.08;14.25;;;;;;;11.76;69.66;99985.16;5044383;28;20112;-59
2022/05/21 10:25:22;;;;;;;27.55;17.38;;;;;;;11.72;69.78;99982.63;5043020;28;20363;-60
2022/05/21 10:28:31;;;;;;;30.33;18.20;;;;;;;11.82;69.76;100002.44;5045285;28;20053;-60
2022/05/21 10:31:26;;;;;;;31.23;16.85;;;;;;;11.69;69.88;100004.53;5043020;28;20072;-59
2022/05/21 10:34:10;;;;;;;59.97;21.50;;;;;;;11.54;70.33;99984.81;5044402;28;20116;-59
2022/05/21 10:37:01;;;;;;;26.58;22.00;;;;;;;11.62;70.37;100003.81;5044604;28;20497;-59
2022/05/21 10:39:50;;;;;;;34.35;20.92;;;;;;;11.52;70.80;100004.94;5044043;28;20056;-59
2022/05/21 10:42:42;;;;;;;38.17;21.77;;;;;;;11.45;70.95;100000.72;5043346;28;20072;-59
2022/05/21 10:45:20;;;;;;;19.85;15.05;;;;;;;10.95;70.97;99916.50;5044241;28;20045;-58
2022/05/21 10:48:17;;;;;;;25.73;15.65;;;;;;;11.41;71.31;100012.19;5045207;28;20128;-59
2022/05/21 10:50:54;;;;;;;24.00;14.05;;;;;;;11.16;71.61;99978.75;5043299;28;20055;-58
2022/05/21 10:53:59;;;;;;;19.05;14.35;;;;;;;11.37;71.86;100013.16;5044105;28;20056;-60
2022/05/21 10:56:45;;;;;;;20.27;13.52;;;;;;;11.34;71.59;100018.47;5044349;28;20247;-59
2022/05/21 10:59:35;;;;;;;31.65;14.07;;;;;;;11.32;71.79;100020.25;5042635;28;20084;-59
2022/05/21 11:02:24;;;;;;;20.02;13.35;;;;;;;11.32;71.90;100025.47;5044461;28;21096;-58
2022/05/21 11:05:30;;;;;;;17.67;13.35;;;;;;;11.27;72.08;100029.94;5042466;28;20053;-59
2022/05/21 11:08:08;;;;;;;17.38;13.30;;;;;;;11.20;72.11;100035.31;5042856;28;20971;-59
2022/05/21 11:10:48;;;;;;;23.40;14.63;;;;;;;11.18;72.25;100031.91;5043516;28;20067;-58
2022/05/21 11:13:26;;;;;;;19.42;13.73;;;;;;;11.17;72.63;100038.00;5043521;28;20088;-59
2022/05/21 11:16:03;;;;;;;19.08;14.00;;;;;;;11.22;72.28;100051.84;5044076;28;20052;-57
2022/05/21 11:18:39;;;;;;;18.00;14.30;;;;;;;11.17;72.33;100043.22;5043223;28;20129;-59
2022/05/21 11:21:17;;;;;;;22.02;13.38;;;;;;;11.13;72.78;100041.59;5043044;28;20059;-60
2022/05/21 11:23:57;;;;;;;26.25;14.27;;;;;;;10.75;72.59;99977.91;5040974;28;20119;-59
2022/05/21 11:26:42;;;;;;;27.30;14.00;;;;;;;11.00;72.73;100024.44;5036900;28;20053;-59
2022/05/21 11:29:22;;;;;;;24.10;13.68;;;;;;;11.13;72.80;100041.59;5039561;28;20063;-59
2022/05/21 11:37:38;;;;;;;52.92;14.88;;;;;;;11.02;73.30;100043.56;5039416;28;20061;-58
2022/05/21 11:40:10;;;;;;;44.30;13.95;;;;;;;10.97;72.93;100033.22;5042767;28;20053;-59
2022/05/21 11:42:52;;;;;;;35.90;14.02;;;;;;;10.87;73.11;100033.44;5042293;28;20045;-58
2022/05/21 11:45:27;;;;;;;64.20;14.68;;;;;;;10.90;73.28;100036.00;5041635;28;20339;-58
2022/05/21 11:48:14;;;;;;;35.03;12.93;;;;;;;10.86;73.19;100036.94;5041960;28;20084;-60
2022/05/21 11:50:45;;;;;;;22.63;13.90;;;;;;;10.73;73.31;100032.00;5040559;28;20160;-59
2022/05/21 11:53:39;;;;;;;21.35;14.93;;;;;;;10.54;73.74;100033.25;5042226;28;20151;-59
2022/05/21 11:56:11;;;;;;;23.17;14.48;;;;;;;10.31;74.48;100029.34;5039515;28;20057;-59
2022/05/21 11:59:15;;;;;;;23.23;14.82;;;;;;;10.14;75.27;100037.44;5039355;28;20049;-59
2022/05/21 12:02:12;;;;;;;21.10;15.10;;;;;;;10.04;75.64;100041.13;4990822;28;20050;-60
2022/05/21 12:04:53;;;;;;;25.85;16.17;;;;;;;10.04;76.43;100042.88;4991487;28;20054;-59
2022/05/21 12:07:49;;;;;;;20.83;16.50;;;;;;;10.00;76.46;100034.22;5031097;28;20049;-58
2022/05/21 12:10:28;;;;;;;24.98;15.35;;;;;;;9.87;76.54;100002.25;5042794;28;20344;-60
2022/05/21 12:13:10;;;;;;;20.92;15.35;;;;;;;9.95;76.63;100015.16;5042000;28;20060;-59
2022/05/21 12:15:50;;;;;;;20.48;15.57;;;;;;;9.91;76.60;100008.31;5042190;28;20616;-59